sensor_id;sensor_type;location;lat;lon;timestamp;temperature;humidity
18083;DHT22;9168;51.194;6.840;2022-11-15T00:00:55;10.60;99.90
18083;DHT22;9168;51.194;6.840;2022-11-15T00:03:25;10.60;99.90
18083;DHT22;9168;51.194;6.840;2022-11-15T00:05:52;10.60;99.90
18083;DHT22;9168;51.194;6.840;2022-11-15T00:08:20;10.60;99.90
18083;DHT22;9168;51.194;6.840;2022-11-15T00:10:54;10.60;99.90
18083;DHT22;9168;51.194;6.840;2022-11-15T00:13:22;10.60;99.90
18083;DHT22;9168;51.194;6.840;2022-11-15T00:15:49;10.60;99.90
18083;DHT22;9168;51.194;6.840;2022-11-15T00:18:16;10.60;99.90
18083;DHT22;9168;51.194;6.840;2022-11-15T00:20:43;10.60;99.90
18083;DHT22;9168;51.194;6.840;2022-11-15T00:23:11;10.70;99.90
18083;DHT22;9168;51.194;6.840;2022-11-15T00:25:39;10.70;99.90
18083;DHT22;9168;51.194;6.840;2022-11-15T00:28:06;10.70;99.90
18083;DHT22;9168;51.194;6.840;2022-11-15T00:30:33;10.70;99.90
18083;DHT22;9168;51.194;6.840;2022-11-15T00:33:02;10.80;99.90
18083;DHT22;9168;51.194;6.840;2022-11-15T00:35:30;10.80;99.90
18083;DHT22;9168;51.194;6.840;2022-11-15T00:37:57;10.80;99.90
18083;DHT22;9168;51.194;6.840;2022-11-15T00:40:24;10.80;99.90
18083;DHT22;9168;51.194;6.840;2022-11-15T00:42:53;10.80;99.90
18083;DHT22;9168;51.194;6.840;2022-11-15T00:45:19;10.90;99.90
18083;DHT22;9168;51.194;6.840;2022-11-15T00:47:46;10.90;99.90
18083;DHT22;9168;51.194;6.840;2022-11-15T00:50:14;10.90;99.90
18083;DHT22;9168;51.194;6.840;2022-11-15T00:52:41;10.90;99.90
18083;DHT22;9168;51.194;6.840;2022-11-15T00:55:09;11.00;99.90
18083;DHT22;9168;51.194;6.840;2022-11-15T00:57:40;11.00;99.90
18083;DHT22;9168;51.194;6.840;2022-11-15T01:00:09;11.00;99.90
18083;DHT22;9168;51.194;6.840;2022-11-15T01:02:36;11.00;99.90
18083;DHT22;9168;51.194;6.840;2022-11-15T01:05:03;11.10;99.90
18083;DHT22;9168;51.194;6.840;2022-11-15T01:07:31;11.10;99.90
18083;DHT22;9168;51.194;6.840;2022-11-15T01:09:57;11.00;99.90
18083;DHT22;9168;51.194;6.840;2022-11-15T01:12:24;11.00;99.90
18083;DHT22;9168;51.194;6.840;2022-11-15T01:14:51;11.00;99.90
18083;DHT22;9168;51.194;6.840;2022-11-15T01:17:19;11.00;99.90
18083;DHT22;9168;51.194;6.840;2022-11-15T01:19:46;11.10;99.90
18083;DHT22;9168;51.194;6.840;2022-11-15T01:22:13;11.10;99.90
18083;DHT22;9168;51.194;6.840;2022-11-15T01:24:40;11.10;99.90
18083;DHT22;9168;51.194;6.840;2022-11-15T01:27:07;11.10;99.90
18083;DHT22;9168;51.194;6.840;2022-11-15T01:29:34;11.10;99.90
18083;DHT22;9168;51.194;6.840;2022-11-15T01:32:01;11.10;99.90
18083;DHT22;9168;51.194;6.840;2022-11-15T01:34:29;11.20;99.90
18083;DHT22;9168;51.194;6.840;2022-11-15T01:36:56;11.20;99.90
18083;DHT22;9168;51.194;6.840;2022-11-15T01:39:23;11.20;99.90
18083;DHT22;9168;51.194;6.840;2022-11-15T01:41:50;11.20;99.90
18083;DHT22;9168;51.194;6.840;2022-11-15T01:44:37;11.20;99.90
18083;DHT22;9168;51.194;6.840;2022-11-15T01:47:07;11.20;99.90
18083;DHT22;9168;51.194;6.840;2022-11-15T01:49:40;11.20;99.90
18083;DHT22;9168;51.194;6.840;2022-11-15T01:52:11;11.20;99.90
18083;DHT22;9168;51.194;6.840;2022-11-15T01:54:39;11.20;99.90
18083;DHT22;9168;51.194;6.840;2022-11-15T01:57:09;11.10;99.90
18083;DHT22;9168;51.194;6.840;2022-11-15T01:59:37;11.10;99.90
18083;DHT22;9168;51.194;6.840;2022-11-15T02:02:05;11.10;99.90
18083;DHT22;9168;51.194;6.840;2022-11-15T02:04:35;11.20;99.90
18083;DHT22;9168;51.194;6.840;2022-11-15T02:07:05;11.20;99.90
18083;DHT22;9168;51.194;6.840;2022-11-15T02:09:33;11.20;99.90
18083;DHT22;9168;51.194;6.840;2022-11-15T02:12:00;11.20;99.90
18083;DHT22;9168;51.194;6.840;2022-11-15T02:14:28;11.20;99.90
18083;DHT22;9168;51.194;6.840;2022-11-15T02:16:59;11.20;99.90
18083;DHT22;9168;51.194;6.840;2022-11-15T02:19:49;11.30;99.90
18083;DHT22;9168;51.194;6.840;2022-11-15T02:22:35;11.20;99.90
18083;DHT22;9168;51.194;6.840;2022-11-15T02:25:14;11.30;99.90
18083;DHT22;9168;51.194;6.840;2022-11-15T02:28:16;11.30;99.90
18083;DHT22;9168;51.194;6.840;2022-11-15T02:30:53;11.30;99.90
18083;DHT22;9168;51.194;6.840;2022-11-15T02:33:31;11.40;99.90
18083;DHT22;9168;51.194;6.840;2022-11-15T02:36:02;11.40;99.90
18083;DHT22;9168;51.194;6.840;2022-11-15T02:38:37;11.40;99.90
18083;DHT22;9168;51.194;6.840;2022-11-15T02:41:09;11.40;99.90
18083;DHT22;9168;51.194;6.840;2022-11-15T02:43:39;11.40;99.90
18083;DHT22;9168;51.194;6.840;2022-11-15T02:46:28;11.40;99.90
18083;DHT22;9168;51.194;6.840;2022-11-15T02:49:11;11.50;99.90
18083;DHT22;9168;51.194;6.840;2022-11-15T02:51:40;11.50;99.90
18083;DHT22;9168;51.194;6.840;2022-11-15T02:54:12;11.50;99.90
18083;DHT22;9168;51.194;6.840;2022-11-15T02:56:39;11.50;99.90
18083;DHT22;9168;51.194;6.840;2022-11-15T02:59:29;11.50;99.90
18083;DHT22;9168;51.194;6.840;2022-11-15T03:02:13;11.50;99.90
18083;DHT22;9168;51.194;6.840;2022-11-15T03:04:44;11.50;99.90
18083;DHT22;9168;51.194;6.840;2022-11-15T03:07:18;11.50;99.90
18083;DHT22;9168;51.194;6.840;2022-11-15T03:09:51;11.50;99.90
18083;DHT22;9168;51.194;6.840;2022-11-15T03:12:25;11.60;99.90
18083;DHT22;9168;51.194;6.840;2022-11-15T03:14:56;11.60;99.90
18083;DHT22;9168;51.194;6.840;2022-11-15T03:17:29;11.60;99.90
18083;DHT22;9168;51.194;6.840;2022-11-15T03:19:59;11.60;99.90
18083;DHT22;9168;51.194;6.840;2022-11-15T03:22:29;11.70;99.90
18083;DHT22;9168;51.194;6.840;2022-11-15T03:25:04;11.70;99.90
18083;DHT22;9168;51.194;6.840;2022-11-15T03:27:35;11.70;99.90
18083;DHT22;9168;51.194;6.840;2022-11-15T03:30:07;11.70;99.90
18083;DHT22;9168;51.194;6.840;2022-11-15T03:32:38;11.70;99.90
18083;DHT22;9168;51.194;6.840;2022-11-15T03:35:08;11.70;99.90
18083;DHT22;9168;51.194;6.840;2022-11-15T03:37:41;11.70;99.90
18083;DHT22;9168;51.194;6.840;2022-11-15T03:40:09;11.70;99.90
18083;DHT22;9168;51.194;6.840;2022-11-15T03:42:42;11.70;99.90
18083;DHT22;9168;51.194;6.840;2022-11-15T03:45:14;11.70;99.90
18083;DHT22;9168;51.194;6.840;2022-11-15T03:47:48;11.70;99.90
18083;DHT22;9168;51.194;6.840;2022-11-15T03:50:18;11.70;99.90
18083;DHT22;9168;51.194;6.840;2022-11-15T03:52:46;11.70;99.90
18083;DHT22;9168;51.194;6.840;2022-11-15T03:55:16;11.70;99.90
18083;DHT22;9168;51.194;6.840;2022-11-15T03:57:44;11.70;99.90
18083;DHT22;9168;51.194;6.840;2022-11-15T04:00:11;11.70;99.90
18083;DHT22;9168;51.194;6.840;2022-11-15T04:02:38;11.70;99.90
18083;DHT22;9168;51.194;6.840;2022-11-15T04:05:07;11.70;99.90
18083;DHT22;9168;51.194;6.840;2022-11-15T04:07:34;11.70;99.90
18083;DHT22;9168;51.194;6.840;2022-11-15T04:10:01;11.70;99.90
18083;DHT22;9168;51.194;6.840;2022-11-15T04:12:31;11.80;99.90
18083;DHT22;9168;51.194;6.840;2022-11-15T04:15:00;11.80;99.90
18083;DHT22;9168;51.194;6.840;2022-11-15T04:17:40;11.80;99.90
18083;DHT22;9168;51.194;6.840;2022-11-15T04:20:12;11.80;99.90
18083;DHT22;9168;51.194;6.840;2022-11-15T04:22:57;11.80;99.90
18083;DHT22;9168;51.194;6.840;2022-11-15T04:25:42;11.80;99.90
18083;DHT22;9168;51.194;6.840;2022-11-15T04:28:09;11.80;99.90
18083;DHT22;9168;51.194;6.840;2022-11-15T04:30:36;11.70;99.90
18083;DHT22;9168;51.194;6.840;2022-11-15T04:33:04;11.80;99.90
18083;DHT22;9168;51.194;6.840;2022-11-15T04:35:32;11.80;99.90
18083;DHT22;9168;51.194;6.840;2022-11-15T04:38:00;11.80;99.90
18083;DHT22;9168;51.194;6.840;2022-11-15T04:40:27;11.80;99.90
18083;DHT22;9168;51.194;6.840;2022-11-15T04:42:53;11.80;99.90
18083;DHT22;9168;51.194;6.840;2022-11-15T04:45:20;11.80;99.90
18083;DHT22;9168;51.194;6.840;2022-11-15T04:47:47;11.80;99.90
18083;DHT22;9168;51.194;6.840;2022-11-15T04:50:15;11.80;99.90
18083;DHT22;9168;51.194;6.840;2022-11-15T04:52:50;11.80;99.90
18083;DHT22;9168;51.194;6.840;2022-11-15T04:55:17;11.80;99.90
18083;DHT22;9168;51.194;6.840;2022-11-15T04:57:44;11.70;99.90
18083;DHT22;9168;51.194;6.840;2022-11-15T05:00:13;11.70;99.90
18083;DHT22;9168;51.194;6.840;2022-11-15T05:02:42;11.70;99.90
18083;DHT22;9168;51.194;6.840;2022-11-15T05:05:26;11.70;99.90
18083;DHT22;9168;51.194;6.840;2022-11-15T05:07:54;11.70;99.90
18083;DHT22;9168;51.194;6.840;2022-11-15T05:10:21;11.70;99.90
18083;DHT22;9168;51.194;6.840;2022-11-15T05:12:48;11.70;99.90
18083;DHT22;9168;51.194;6.840;2022-11-15T05:15:15;11.70;99.90
18083;DHT22;9168;51.194;6.840;2022-11-15T05:17:42;11.70;99.90
18083;DHT22;9168;51.194;6.840;2022-11-15T05:20:10;11.70;99.90
18083;DHT22;9168;51.194;6.840;2022-11-15T05:22:37;11.60;99.90
18083;DHT22;9168;51.194;6.840;2022-11-15T05:25:06;11.70;99.90
18083;DHT22;9168;51.194;6.840;2022-11-15T05:27:34;11.70;99.90
18083;DHT22;9168;51.194;6.840;2022-11-15T05:30:01;11.70;99.90
18083;DHT22;9168;51.194;6.840;2022-11-15T05:32:28;11.70;99.90
18083;DHT22;9168;51.194;6.840;2022-11-15T05:34:55;11.70;99.90
18083;DHT22;9168;51.194;6.840;2022-11-15T05:37:22;11.70;99.90
18083;DHT22;9168;51.194;6.840;2022-11-15T05:39:49;11.80;99.90
18083;DHT22;9168;51.194;6.840;2022-11-15T05:42:17;11.80;99.90
18083;DHT22;9168;51.194;6.840;2022-11-15T05:44:48;11.80;99.90
18083;DHT22;9168;51.194;6.840;2022-11-15T05:47:19;11.80;99.90
18083;DHT22;9168;51.194;6.840;2022-11-15T05:49:48;11.80;99.90
18083;DHT22;9168;51.194;6.840;2022-11-15T05:52:19;11.80;99.90
18083;DHT22;9168;51.194;6.840;2022-11-15T05:54:47;11.80;99.90
18083;DHT22;9168;51.194;6.840;2022-11-15T05:57:14;11.80;99.90
18083;DHT22;9168;51.194;6.840;2022-11-15T05:59:45;11.80;99.90
18083;DHT22;9168;51.194;6.840;2022-11-15T06:02:12;11.90;99.90
18083;DHT22;9168;51.194;6.840;2022-11-15T06:04:39;11.90;99.90
18083;DHT22;9168;51.194;6.840;2022-11-15T06:07:06;11.90;99.90
18083;DHT22;9168;51.194;6.840;2022-11-15T06:09:33;11.90;99.90
18083;DHT22;9168;51.194;6.840;2022-11-15T06:12:00;11.90;99.90
18083;DHT22;9168;51.194;6.840;2022-11-15T06:14:27;11.90;99.90
18083;DHT22;9168;51.194;6.840;2022-11-15T06:16:55;11.90;99.90
18083;DHT22;9168;51.194;6.840;2022-11-15T06:19:22;12.00;99.90
18083;DHT22;9168;51.194;6.840;2022-11-15T06:21:49;12.00;99.90
18083;DHT22;9168;51.194;6.840;2022-11-15T06:24:16;11.90;99.90
18083;DHT22;9168;51.194;6.840;2022-11-15T06:26:43;12.00;99.90
18083;DHT22;9168;51.194;6.840;2022-11-15T06:29:09;12.00;99.90
18083;DHT22;9168;51.194;6.840;2022-11-15T06:31:36;12.00;99.90
18083;DHT22;9168;51.194;6.840;2022-11-15T06:34:04;12.00;99.90
18083;DHT22;9168;51.194;6.840;2022-11-15T06:36:34;11.90;99.90
18083;DHT22;9168;51.194;6.840;2022-11-15T06:39:01;11.90;99.90
18083;DHT22;9168;51.194;6.840;2022-11-15T06:41:28;12.00;99.90
18083;DHT22;9168;51.194;6.840;2022-11-15T06:43:55;11.90;99.90
18083;DHT22;9168;51.194;6.840;2022-11-15T06:46:23;12.00;99.90
18083;DHT22;9168;51.194;6.840;2022-11-15T06:48:50;11.90;99.90
18083;DHT22;9168;51.194;6.840;2022-11-15T06:51:19;11.90;99.90
18083;DHT22;9168;51.194;6.840;2022-11-15T06:53:46;11.90;99.90
18083;DHT22;9168;51.194;6.840;2022-11-15T06:56:13;11.90;99.90
18083;DHT22;9168;51.194;6.840;2022-11-15T06:58:39;11.90;99.90
18083;DHT22;9168;51.194;6.840;2022-11-15T07:01:08;11.90;99.90
18083;DHT22;9168;51.194;6.840;2022-11-15T07:03:35;11.90;99.90
18083;DHT22;9168;51.194;6.840;2022-11-15T07:06:02;12.00;99.90
18083;DHT22;9168;51.194;6.840;2022-11-15T07:08:31;12.00;99.90
18083;DHT22;9168;51.194;6.840;2022-11-15T07:10:59;12.00;99.90
18083;DHT22;9168;51.194;6.840;2022-11-15T07:13:28;12.00;99.90
18083;DHT22;9168;51.194;6.840;2022-11-15T07:15:55;12.00;99.90
18083;DHT22;9168;51.194;6.840;2022-11-15T07:18:22;11.90;99.90
18083;DHT22;9168;51.194;6.840;2022-11-15T07:20:49;11.90;99.90
18083;DHT22;9168;51.194;6.840;2022-11-15T07:23:16;11.90;99.90
18083;DHT22;9168;51.194;6.840;2022-11-15T07:25:44;11.90;99.90
18083;DHT22;9168;51.194;6.840;2022-11-15T07:28:11;11.90;99.90
18083;DHT22;9168;51.194;6.840;2022-11-15T07:30:38;11.90;99.90
18083;DHT22;9168;51.194;6.840;2022-11-15T07:33:05;11.90;99.90
18083;DHT22;9168;51.194;6.840;2022-11-15T07:35:31;11.90;99.90
18083;DHT22;9168;51.194;6.840;2022-11-15T07:38:00;11.90;99.90
18083;DHT22;9168;51.194;6.840;2022-11-15T07:40:28;11.90;99.90
18083;DHT22;9168;51.194;6.840;2022-11-15T07:43:01;12.00;99.90
18083;DHT22;9168;51.194;6.840;2022-11-15T07:45:28;12.00;99.90
18083;DHT22;9168;51.194;6.840;2022-11-15T07:47:55;11.90;99.90
18083;DHT22;9168;51.194;6.840;2022-11-15T07:50:22;12.00;99.90
18083;DHT22;9168;51.194;6.840;2022-11-15T07:52:53;12.00;99.90
18083;DHT22;9168;51.194;6.840;2022-11-15T07:55:21;11.90;99.90
18083;DHT22;9168;51.194;6.840;2022-11-15T07:57:49;11.90;99.90
18083;DHT22;9168;51.194;6.840;2022-11-15T08:00:18;11.90;99.90
18083;DHT22;9168;51.194;6.840;2022-11-15T08:02:45;12.00;99.90
18083;DHT22;9168;51.194;6.840;2022-11-15T08:05:12;12.00;99.90
18083;DHT22;9168;51.194;6.840;2022-11-15T08:07:39;11.90;99.90
18083;DHT22;9168;51.194;6.840;2022-11-15T08:10:07;11.90;99.90
18083;DHT22;9168;51.194;6.840;2022-11-15T08:12:34;11.90;99.90
18083;DHT22;9168;51.194;6.840;2022-11-15T08:15:01;11.90;99.90
18083;DHT22;9168;51.194;6.840;2022-11-15T08:17:29;11.90;99.90
18083;DHT22;9168;51.194;6.840;2022-11-15T08:19:58;11.90;99.90
18083;DHT22;9168;51.194;6.840;2022-11-15T08:22:25;12.00;99.90
18083;DHT22;9168;51.194;6.840;2022-11-15T08:24:52;12.00;99.90
18083;DHT22;9168;51.194;6.840;2022-11-15T08:27:19;11.90;99.90
18083;DHT22;9168;51.194;6.840;2022-11-15T08:29:48;12.00;99.90
18083;DHT22;9168;51.194;6.840;2022-11-15T08:32:15;12.00;99.90
18083;DHT22;9168;51.194;6.840;2022-11-15T08:34:44;12.00;99.90
18083;DHT22;9168;51.194;6.840;2022-11-15T08:37:11;12.00;99.90
18083;DHT22;9168;51.194;6.840;2022-11-15T08:39:38;12.10;99.90
18083;DHT22;9168;51.194;6.840;2022-11-15T08:42:05;12.10;99.90
18083;DHT22;9168;51.194;6.840;2022-11-15T08:44:31;12.10;99.90
18083;DHT22;9168;51.194;6.840;2022-11-15T08:46:58;12.10;99.90
18083;DHT22;9168;51.194;6.840;2022-11-15T08:49:25;12.10;99.90
18083;DHT22;9168;51.194;6.840;2022-11-15T08:51:53;12.10;99.90
18083;DHT22;9168;51.194;6.840;2022-11-15T08:54:20;12.20;99.90
18083;DHT22;9168;51.194;6.840;2022-11-15T08:56:47;12.20;99.90
18083;DHT22;9168;51.194;6.840;2022-11-15T08:59:14;12.20;99.90
18083;DHT22;9168;51.194;6.840;2022-11-15T09:01:41;12.10;99.90
18083;DHT22;9168;51.194;6.840;2022-11-15T09:04:08;12.20;99.90
18083;DHT22;9168;51.194;6.840;2022-11-15T09:06:34;12.20;99.90
18083;DHT22;9168;51.194;6.840;2022-11-15T09:09:03;12.20;99.90
18083;DHT22;9168;51.194;6.840;2022-11-15T09:11:30;12.20;99.90
18083;DHT22;9168;51.194;6.840;2022-11-15T09:13:57;12.20;99.90
18083;DHT22;9168;51.194;6.840;2022-11-15T09:16:24;12.20;99.90
18083;DHT22;9168;51.194;6.840;2022-11-15T09:18:52;12.20;99.90
18083;DHT22;9168;51.194;6.840;2022-11-15T09:21:19;12.30;99.90
18083;DHT22;9168;51.194;6.840;2022-11-15T09:23:45;12.30;99.90
18083;DHT22;9168;51.194;6.840;2022-11-15T09:26:14;12.30;99.90
18083;DHT22;9168;51.194;6.840;2022-11-15T09:28:41;12.30;99.90
18083;DHT22;9168;51.194;6.840;2022-11-15T09:31:08;12.40;99.90
18083;DHT22;9168;51.194;6.840;2022-11-15T09:33:35;12.40;99.90
18083;DHT22;9168;51.194;6.840;2022-11-15T09:36:04;12.40;99.90
18083;DHT22;9168;51.194;6.840;2022-11-15T09:38:31;12.50;99.90
18083;DHT22;9168;51.194;6.840;2022-11-15T09:41:16;12.50;99.90
18083;DHT22;9168;51.194;6.840;2022-11-15T09:43:50;12.60;99.90
18083;DHT22;9168;51.194;6.840;2022-11-15T09:46:24;12.60;99.90
18083;DHT22;9168;51.194;6.840;2022-11-15T09:48:53;12.60;99.90
18083;DHT22;9168;51.194;6.840;2022-11-15T09:51:26;12.60;99.90
18083;DHT22;9168;51.194;6.840;2022-11-15T09:54:00;12.70;99.90
18083;DHT22;9168;51.194;6.840;2022-11-15T09:56:31;12.70;99.90
18083;DHT22;9168;51.194;6.840;2022-11-15T10:01:55;12.80;99.90
18083;DHT22;9168;51.194;6.840;2022-11-15T10:04:24;12.90;99.90
18083;DHT22;9168;51.194;6.840;2022-11-15T10:06:58;12.90;99.90
18083;DHT22;9168;51.194;6.840;2022-11-15T10:09:33;12.90;99.90
18083;DHT22;9168;51.194;6.840;2022-11-15T10:12:04;12.90;99.90
18083;DHT22;9168;51.194;6.840;2022-11-15T10:14:31;13.00;99.90
18083;DHT22;9168;51.194;6.840;2022-11-15T10:17:11;13.00;99.90
18083;DHT22;9168;51.194;6.840;2022-11-15T10:19:46;13.00;99.90
18083;DHT22;9168;51.194;6.840;2022-11-15T10:22:35;13.10;99.90
18083;DHT22;9168;51.194;6.840;2022-11-15T10:25:27;13.10;99.90
18083;DHT22;9168;51.194;6.840;2022-11-15T10:27:57;13.20;99.90
18083;DHT22;9168;51.194;6.840;2022-11-15T10:30:32;13.20;99.90
18083;DHT22;9168;51.194;6.840;2022-11-15T10:33:11;13.20;99.90
18083;DHT22;9168;51.194;6.840;2022-11-15T10:35:38;13.30;99.90
18083;DHT22;9168;51.194;6.840;2022-11-15T10:38:06;13.50;99.90
18083;DHT22;9168;51.194;6.840;2022-11-15T10:40:34;13.60;99.90
18083;DHT22;9168;51.194;6.840;2022-11-15T10:43:14;13.80;99.90
18083;DHT22;9168;51.194;6.840;2022-11-15T10:45:41;13.90;99.90
18083;DHT22;9168;51.194;6.840;2022-11-15T10:48:24;14.00;99.90
18083;DHT22;9168;51.194;6.840;2022-11-15T10:50:52;14.10;99.90
18083;DHT22;9168;51.194;6.840;2022-11-15T10:53:27;14.20;99.90
18083;DHT22;9168;51.194;6.840;2022-11-15T10:55:59;14.70;99.90
18083;DHT22;9168;51.194;6.840;2022-11-15T10:58:34;15.30;99.90
18083;DHT22;9168;51.194;6.840;2022-11-15T11:01:12;16.10;99.90
18083;DHT22;9168;51.194;6.840;2022-11-15T11:03:41;16.80;99.90
18083;DHT22;9168;51.194;6.840;2022-11-15T11:06:11;17.60;99.90
18083;DHT22;9168;51.194;6.840;2022-11-15T11:08:39;18.00;99.90
18083;DHT22;9168;51.194;6.840;2022-11-15T11:11:07;18.50;99.90
18083;DHT22;9168;51.194;6.840;2022-11-15T11:13:37;19.00;99.90
18083;DHT22;9168;51.194;6.840;2022-11-15T11:16:26;19.30;99.90
18083;DHT22;9168;51.194;6.840;2022-11-15T11:19:04;19.70;99.90
18083;DHT22;9168;51.194;6.840;2022-11-15T11:21:43;20.10;99.90
18083;DHT22;9168;51.194;6.840;2022-11-15T11:24:19;20.60;99.90
18083;DHT22;9168;51.194;6.840;2022-11-15T11:26:59;20.70;99.90
18083;DHT22;9168;51.194;6.840;2022-11-15T11:29:42;20.70;99.90
18083;DHT22;9168;51.194;6.840;2022-11-15T11:32:32;21.20;99.90
18083;DHT22;9168;51.194;6.840;2022-11-15T11:35:06;21.20;99.90
18083;DHT22;9168;51.194;6.840;2022-11-15T11:37:42;21.10;99.90
18083;DHT22;9168;51.194;6.840;2022-11-15T11:40:20;21.30;99.90
18083;DHT22;9168;51.194;6.840;2022-11-15T11:42:56;21.20;99.90
18083;DHT22;9168;51.194;6.840;2022-11-15T11:45:44;21.20;99.90
18083;DHT22;9168;51.194;6.840;2022-11-15T11:48:23;20.70;99.90
18083;DHT22;9168;51.194;6.840;2022-11-15T11:50:50;19.80;99.90
18083;DHT22;9168;51.194;6.840;2022-11-15T11:53:26;19.40;99.90
18083;DHT22;9168;51.194;6.840;2022-11-15T11:55:58;18.80;99.90
18083;DHT22;9168;51.194;6.840;2022-11-15T11:58:33;18.60;99.90
18083;DHT22;9168;51.194;6.840;2022-11-15T12:01:10;18.40;99.90
18083;DHT22;9168;51.194;6.840;2022-11-15T12:03:42;18.00;99.90
18083;DHT22;9168;51.194;6.840;2022-11-15T12:06:19;17.70;99.90
18083;DHT22;9168;51.194;6.840;2022-11-15T12:08:52;17.50;99.90
18083;DHT22;9168;51.194;6.840;2022-11-15T12:11:21;17.40;99.90
18083;DHT22;9168;51.194;6.840;2022-11-15T12:13:56;17.30;99.90
18083;DHT22;9168;51.194;6.840;2022-11-15T12:16:27;17.50;99.90
18083;DHT22;9168;51.194;6.840;2022-11-15T12:18:56;17.50;99.90
18083;DHT22;9168;51.194;6.840;2022-11-15T12:21:30;17.70;99.90
18083;DHT22;9168;51.194;6.840;2022-11-15T12:24:02;17.80;99.90
18083;DHT22;9168;51.194;6.840;2022-11-15T12:26:34;17.50;99.90
18083;DHT22;9168;51.194;6.840;2022-11-15T12:29:05;17.30;99.90
18083;DHT22;9168;51.194;6.840;2022-11-15T12:31:39;17.00;99.90
18083;DHT22;9168;51.194;6.840;2022-11-15T12:34:16;16.60;99.90
18083;DHT22;9168;51.194;6.840;2022-11-15T12:36:55;16.60;99.90
18083;DHT22;9168;51.194;6.840;2022-11-15T12:42:56;16.40;99.90
18083;DHT22;9168;51.194;6.840;2022-11-15T12:45:26;16.30;99.90
18083;DHT22;9168;51.194;6.840;2022-11-15T12:47:57;16.20;99.90
18083;DHT22;9168;51.194;6.840;2022-11-15T12:50:54;16.20;99.90
18083;DHT22;9168;51.194;6.840;2022-11-15T12:53:27;16.50;99.90
18083;DHT22;9168;51.194;6.840;2022-11-15T12:56:15;16.60;99.90
18083;DHT22;9168;51.194;6.840;2022-11-15T12:58:46;16.80;99.90
18083;DHT22;9168;51.194;6.840;2022-11-15T13:04:27;16.90;99.90
18083;DHT22;9168;51.194;6.840;2022-11-15T13:06:56;16.90;99.90
18083;DHT22;9168;51.194;6.840;2022-11-15T13:12:54;17.00;99.90
18083;DHT22;9168;51.194;6.840;2022-11-15T13:15:52;16.80;99.90
18083;DHT22;9168;51.194;6.840;2022-11-15T13:18:32;16.80;99.90
18083;DHT22;9168;51.194;6.840;2022-11-15T13:21:02;16.70;99.90
18083;DHT22;9168;51.194;6.840;2022-11-15T13:23:52;16.50;99.90
18083;DHT22;9168;51.194;6.840;2022-11-15T13:26:20;16.40;99.90
18083;DHT22;9168;51.194;6.840;2022-11-15T13:28:49;16.30;99.90
18083;DHT22;9168;51.194;6.840;2022-11-15T13:31:29;16.30;99.90
18083;DHT22;9168;51.194;6.840;2022-11-15T13:34:00;16.20;99.90
18083;DHT22;9168;51.194;6.840;2022-11-15T13:36:31;16.10;99.90
18083;DHT22;9168;51.194;6.840;2022-11-15T13:39:02;16.10;99.90
18083;DHT22;9168;51.194;6.840;2022-11-15T13:41:31;15.90;99.90
18083;DHT22;9168;51.194;6.840;2022-11-15T13:43:59;15.80;99.90
18083;DHT22;9168;51.194;6.840;2022-11-15T13:46:27;15.80;99.90
18083;DHT22;9168;51.194;6.840;2022-11-15T13:48:56;15.70;99.90
18083;DHT22;9168;51.194;6.840;2022-11-15T13:51:36;15.60;99.90
18083;DHT22;9168;51.194;6.840;2022-11-15T13:54:09;15.60;99.90
18083;DHT22;9168;51.194;6.840;2022-11-15T13:56:42;15.60;99.90
18083;DHT22;9168;51.194;6.840;2022-11-15T13:59:10;15.60;99.90
18083;DHT22;9168;51.194;6.840;2022-11-15T14:01:41;15.50;99.90
18083;DHT22;9168;51.194;6.840;2022-11-15T14:04:12;15.50;99.90
18083;DHT22;9168;51.194;6.840;2022-11-15T14:06:47;15.50;99.90
18083;DHT22;9168;51.194;6.840;2022-11-15T14:09:33;15.40;99.90
18083;DHT22;9168;51.194;6.840;2022-11-15T14:12:02;15.40;99.90
18083;DHT22;9168;51.194;6.840;2022-11-15T14:14:30;15.30;99.90
18083;DHT22;9168;51.194;6.840;2022-11-15T14:16:58;15.30;99.90
18083;DHT22;9168;51.194;6.840;2022-11-15T14:19:37;15.20;99.90
18083;DHT22;9168;51.194;6.840;2022-11-15T14:22:11;15.20;99.90
18083;DHT22;9168;51.194;6.840;2022-11-15T14:24:39;15.10;99.90
18083;DHT22;9168;51.194;6.840;2022-11-15T14:27:21;15.10;99.90
18083;DHT22;9168;51.194;6.840;2022-11-15T14:29:48;15.10;99.90
18083;DHT22;9168;51.194;6.840;2022-11-15T14:32:17;15.00;99.90
18083;DHT22;9168;51.194;6.840;2022-11-15T14:34:45;15.00;99.90
18083;DHT22;9168;51.194;6.840;2022-11-15T14:37:20;14.90;99.90
18083;DHT22;9168;51.194;6.840;2022-11-15T14:39:48;14.80;99.90
18083;DHT22;9168;51.194;6.840;2022-11-15T14:42:15;14.80;99.90
18083;DHT22;9168;51.194;6.840;2022-11-15T14:44:42;14.70;99.90
18083;DHT22;9168;51.194;6.840;2022-11-15T14:47:09;14.70;99.90
18083;DHT22;9168;51.194;6.840;2022-11-15T14:49:35;14.60;99.90
18083;DHT22;9168;51.194;6.840;2022-11-15T14:52:07;14.60;99.90
18083;DHT22;9168;51.194;6.840;2022-11-15T14:54:35;14.60;99.90
18083;DHT22;9168;51.194;6.840;2022-11-15T14:57:02;14.50;99.90
18083;DHT22;9168;51.194;6.840;2022-11-15T14:59:29;14.50;99.90
18083;DHT22;9168;51.194;6.840;2022-11-15T15:01:56;14.50;99.90
18083;DHT22;9168;51.194;6.840;2022-11-15T15:04:24;14.50;99.90
18083;DHT22;9168;51.194;6.840;2022-11-15T15:06:52;14.50;99.90
18083;DHT22;9168;51.194;6.840;2022-11-15T15:09:19;14.60;99.90
18083;DHT22;9168;51.194;6.840;2022-11-15T15:11:47;14.50;99.90
18083;DHT22;9168;51.194;6.840;2022-11-15T15:14:14;14.50;99.90
18083;DHT22;9168;51.194;6.840;2022-11-15T15:16:41;14.50;99.90
18083;DHT22;9168;51.194;6.840;2022-11-15T15:19:08;14.40;99.90
18083;DHT22;9168;51.194;6.840;2022-11-15T15:21:35;14.40;99.90
18083;DHT22;9168;51.194;6.840;2022-11-15T15:24:02;14.40;99.90
18083;DHT22;9168;51.194;6.840;2022-11-15T15:26:29;14.40;99.90
18083;DHT22;9168;51.194;6.840;2022-11-15T15:29:00;14.40;99.90
18083;DHT22;9168;51.194;6.840;2022-11-15T15:31:27;14.30;99.90
18083;DHT22;9168;51.194;6.840;2022-11-15T15:33:54;14.30;99.90
18083;DHT22;9168;51.194;6.840;2022-11-15T15:36:21;14.20;99.90
18083;DHT22;9168;51.194;6.840;2022-11-15T15:38:47;14.20;99.90
18083;DHT22;9168;51.194;6.840;2022-11-15T15:41:15;14.20;99.90
18083;DHT22;9168;51.194;6.840;2022-11-15T15:43:42;14.20;99.90
18083;DHT22;9168;51.194;6.840;2022-11-15T15:46:14;14.10;99.90
18083;DHT22;9168;51.194;6.840;2022-11-15T15:51:09;14.10;99.90
18083;DHT22;9168;51.194;6.840;2022-11-15T15:53:36;14.00;99.90
18083;DHT22;9168;51.194;6.840;2022-11-15T15:56:03;14.00;99.90
18083;DHT22;9168;51.194;6.840;2022-11-15T15:58:30;14.00;99.90
18083;DHT22;9168;51.194;6.840;2022-11-15T16:00:58;14.00;99.90
18083;DHT22;9168;51.194;6.840;2022-11-15T16:03:26;14.00;99.90
18083;DHT22;9168;51.194;6.840;2022-11-15T16:05:53;14.00;99.90
18083;DHT22;9168;51.194;6.840;2022-11-15T16:08:21;14.00;99.90
18083;DHT22;9168;51.194;6.840;2022-11-15T16:10:49;13.90;99.90
18083;DHT22;9168;51.194;6.840;2022-11-15T16:13:16;14.00;99.90
18083;DHT22;9168;51.194;6.840;2022-11-15T16:15:44;14.00;99.90
18083;DHT22;9168;51.194;6.840;2022-11-15T16:18:15;14.00;99.90
18083;DHT22;9168;51.194;6.840;2022-11-15T16:20:45;14.00;99.90